Time;durP1;ratioP1;P1;durP2;ratioP2;P2;SDS_P1;SDS_P2;PMS_P1;PMS_P2;Temp;Humidity;BMP_temperature;BMP_pressure;BME280_temperature;BME280_humidity;BME280_pressure;Samples;Min_cycle;Max_cycle;Signal;HPM_P1;HPM_P2
2021/10/13 00:00:15;;;;;;;6.53;1.42;;;;;;;11.60;60.22;100316.34;5093723;28;20810;-81
2021/10/13 00:02:42;;;;;;;6.10;0.98;;;;;;;11.62;60.22;100318.06;5092591;28;20052;-81
2021/10/13 00:05:58;;;;;;;1.17;0.85;;;;;;;11.59;60.93;100311.19;5092358;28;20474;-80
2021/10/13 00:08:24;;;;;;;2.75;1.08;;;;;;;11.64;59.83;100310.94;5092939;28;20074;-81
2021/10/13 00:10:51;;;;;;;2.25;1.20;;;;;;;11.63;59.78;100312.72;5092631;28;20055;-81
2021/10/13 00:13:31;;;;;;;5.80;1.55;;;;;;;11.58;60.93;100317.38;5092512;28;20379;-81
2021/10/13 00:15:59;;;;;;;5.50;1.27;;;;;;;11.61;60.00;100317.22;5092832;28;20052;-81
2021/10/13 00:18:26;;;;;;;2.72;1.00;;;;;;;11.60;60.06;100307.59;5095656;28;20047;-81
2021/10/13 00:21:21;;;;;;;4.93;1.40;;;;;;;11.54;60.85;100314.03;5112547;28;20474;-80
2021/10/13 00:23:47;;;;;;;2.97;1.38;;;;;;;11.56;60.06;100309.53;5112125;28;20047;-81
2021/10/13 00:26:14;;;;;;;3.45;1.05;;;;;;;11.53;59.76;100304.44;5112382;28;20056;-80
2021/10/13 00:29:14;;;;;;;2.83;1.20;;;;;;;11.46;60.75;100313.59;5107192;28;20067;-81
2021/10/13 00:31:40;;;;;;;6.30;1.38;;;;;;;11.46;59.62;100303.03;5094804;28;20479;-80
2021/10/13 00:34:07;;;;;;;3.17;1.27;;;;;;;11.41;59.82;100303.31;5096066;28;20044;-80
2021/10/13 00:36:38;;;;;;;4.70;1.20;;;;;;;11.37;60.18;100298.25;5096053;28;20051;-80
2021/10/13 00:39:04;;;;;;;5.88;1.30;;;;;;;11.35;59.83;100303.59;5101357;28;20058;-80
2021/10/13 00:41:31;;;;;;;5.72;1.77;;;;;;;11.31;59.60;100307.31;5096207;28;20048;-80
2021/10/13 00:44:18;;;;;;;5.65;1.20;;;;;;;11.23;60.49;100307.72;5095626;28;20044;-80
2021/10/13 00:46:45;;;;;;;4.45;1.40;;;;;;;11.25;59.77;100299.75;5096037;28;20048;-80
2021/10/13 00:49:11;;;;;;;2.20;1.25;;;;;;;11.20;59.77;100306.09;5104671;28;20039;-80
2021/10/13 00:52:12;;;;;;;2.83;0.82;;;;;;;11.12;60.94;100310.91;5116055;28;20055;-80
2021/10/13 00:54:46;;;;;;;3.05;1.40;;;;;;;11.11;60.70;100309.22;5116179;28;20056;-81
2021/10/13 00:57:13;;;;;;;3.30;1.00;;;;;;;11.10;60.00;100306.66;5114717;28;20055;-81
2021/10/13 00:59:43;;;;;;;5.25;1.17;;;;;;;11.04;60.40;100307.81;5103201;28;20055;-81
2021/10/13 01:02:12;;;;;;;4.20;0.90;;;;;;;11.02;60.15;100301.75;5099468;28;20402;-81
2021/10/13 01:04:47;;;;;;;3.22;1.23;;;;;;;10.99;60.45;100304.56;5096652;28;20375;-81
2021/10/13 01:07:39;;;;;;;2.47;1.05;;;;;;;10.94;60.80;100304.75;5095739;28;20048;-80
2021/10/13 01:10:18;;;;;;;3.15;1.17;;;;;;;10.92;60.80;100299.56;5110319;28;20049;-83
2021/10/13 01:13:00;;;;;;;3.05;1.17;;;;;;;10.91;61.06;100299.63;5116226;28;20051;-81
2021/10/13 01:15:29;;;;;;;6.38;1.20;;;;;;;10.90;60.73;100300.56;5117064;28;20050;-81
2021/10/13 01:18:06;;;;;;;4.35;1.35;;;;;;;10.86;61.05;100297.25;5116999;28;20059;-81
2021/10/13 01:20:57;;;;;;;1.52;0.95;;;;;;;10.82;61.35;100303.59;5106532;28;20436;-81
2021/10/13 01:23:43;;;;;;;3.28;1.05;;;;;;;10.80;61.23;100301.03;5115410;28;20409;-79
2021/10/13 01:26:45;;;;;;;3.40;1.13;;;;;;;10.82;60.32;100307.09;5115497;28;20047;-80
2021/10/13 01:29:17;;;;;;;3.38;1.00;;;;;;;10.80;60.57;100303.66;5115611;28;20406;-80
2021/10/13 01:31:50;;;;;;;3.33;0.90;;;;;;;10.77;60.50;100314.34;5095119;28;20048;-80
2021/10/13 01:34:36;;;;;;;2.47;1.00;;;;;;;10.72;61.11;100315.53;5084341;28;20293;-80
2021/10/13 01:37:09;;;;;;;3.17;1.08;;;;;;;10.72;60.83;100326.88;5033896;28;20049;-80
2021/10/13 01:40:06;;;;;;;3.42;1.10;;;;;;;10.67;61.42;100331.53;5017565;28;20057;-80
2021/10/13 01:42:36;;;;;;;2.33;1.00;;;;;;;10.67;60.90;100332.41;5016250;28;20049;-80
2021/10/13 01:45:03;;;;;;;2.83;1.13;;;;;;;10.64;60.66;100327.28;5017068;28;20603;-80
2021/10/13 01:47:39;;;;;;;4.55;1.17;;;;;;;10.59;61.73;100339.81;5017166;28;20049;-80
2021/10/13 01:50:08;;;;;;;1.95;1.00;;;;;;;10.60;61.22;100335.38;5017527;28;20053;-80
2021/10/13 01:52:42;;;;;;;2.03;1.13;;;;;;;10.56;61.88;100337.31;5017041;28;20073;-80
2021/10/13 01:55:10;;;;;;;4.78;1.30;;;;;;;10.57;60.93;100344.28;5051686;28;20052;-80
2021/10/13 01:57:38;;;;;;;4.05;1.45;;;;;;;10.56;60.97;100339.94;5094365;28;20048;-80
2021/10/13 02:00:08;;;;;;;3.45;1.50;;;;;;;10.53;61.24;100335.69;5100091;28;20071;-80
2021/10/13 02:02:40;;;;;;;4.57;1.35;;;;;;;10.52;61.69;100344.50;5115045;28;20058;-81
2021/10/13 02:05:08;;;;;;;5.18;1.20;;;;;;;10.53;61.11;100351.47;5115622;28;20047;-80
2021/10/13 02:07:47;;;;;;;4.50;1.48;;;;;;;10.46;62.15;100352.69;5115262;28;20060;-82
2021/10/13 02:10:16;;;;;;;2.20;1.10;;;;;;;10.49;61.11;100354.31;5107972;28;20048;-82
2021/10/13 02:12:46;;;;;;;2.53;1.20;;;;;;;10.45;61.74;100348.34;5094196;28;20060;-83
2021/10/13 02:15:14;;;;;;;4.60;1.30;;;;;;;10.45;61.72;100347.47;5094085;28;20127;-80
2021/10/13 02:17:46;;;;;;;2.83;1.25;;;;;;;10.42;62.21;100345.81;5094222;28;20052;-80
2021/10/13 02:20:14;;;;;;;5.03;1.30;;;;;;;10.42;61.61;100346.69;5100282;28;20048;-80
2021/10/13 02:22:45;;;;;;;3.83;1.25;;;;;;;10.40;62.07;100352.94;5114663;28;20044;-81
2021/10/13 02:25:19;;;;;;;3.35;1.20;;;;;;;10.39;62.76;100349.44;5114284;28;20043;-81
2021/10/13 02:30:50;;;;;;;;;;;;;;;10.42;62.07;100356.34;5104848;28;20051;-83
2021/10/13 02:33:27;;;;;;;3.80;1.38;;;;;;;10.42;62.36;100353.72;5094465;28;19938;-81
2021/10/13 02:35:53;;;;;;;3.53;1.63;;;;;;;10.43;61.50;100360.69;5094012;28;20755;-81
2021/10/13 02:38:30;;;;;;;2.63;1.45;;;;;;;10.38;62.55;100362.69;5094012;28;20048;-81
2021/10/13 02:40:58;;;;;;;4.00;1.35;;;;;;;10.40;61.47;100355.56;5093941;28;20055;-81
2021/10/13 02:43:37;;;;;;;5.43;1.90;;;;;;;10.36;62.61;100357.47;5108959;28;20070;-81
2021/10/13 02:46:23;;;;;;;6.65;1.75;;;;;;;10.38;62.54;100363.53;5093839;28;20051;-81
2021/10/13 02:52:13;;;;;;;5.63;1.83;;;;;;;10.40;61.71;100361.69;5094121;28;20073;-81
2021/10/13 02:54:43;;;;;;;9.23;1.65;;;;;;;10.38;62.20;100362.69;5092829;28;20384;-81
2021/10/13 02:57:26;;;;;;;5.82;2.10;;;;;;;10.35;62.83;100362.84;5093142;28;20058;-80
2021/10/13 02:59:54;;;;;;;;;;;;;;;10.37;62.24;100367.09;5095087;28;20044;-80
2021/10/13 03:02:50;;;;;;;3.67;1.38;;;;;;;10.37;62.42;100368.88;5113505;28;19926;-81
2021/10/13 03:05:20;;;;;;;9.45;1.77;;;;;;;10.37;61.77;100367.09;5113536;28;20047;-81
2021/10/13 03:08:05;;;;;;;4.68;1.27;;;;;;;10.32;62.74;100365.59;5113975;28;20503;-83
2021/10/13 03:10:34;;;;;;;3.50;1.40;;;;;;;10.34;61.67;100367.25;5106390;28;20092;-80
2021/10/13 03:13:03;;;;;;;5.32;1.77;;;;;;;10.33;61.90;100360.28;5093497;28;20052;-81
2021/10/13 03:15:53;;;;;;;8.20;1.60;;;;;;;10.29;62.83;100369.22;5093229;28;20379;-81
2021/10/13 03:18:21;;;;;;;3.47;1.30;;;;;;;10.32;61.96;100374.34;5093170;28;20056;-81
2021/10/13 03:20:49;;;;;;;5.40;1.60;;;;;;;10.33;62.35;100381.31;5106392;28;20587;-81
2021/10/13 03:23:41;;;;;;;5.45;1.20;;;;;;;10.31;63.20;100388.41;5113235;28;20060;-80
2021/10/13 03:26:34;;;;;;;5.00;1.40;;;;;;;10.32;63.22;100391.91;5113035;28;20069;-81
2021/10/13 03:29:02;;;;;;;2.67;1.33;;;;;;;10.39;62.50;100388.09;5112962;28;20062;-81
2021/10/13 03:31:29;;;;;;;5.93;1.60;;;;;;;10.42;62.45;100391.44;5095129;28;20444;-81
2021/10/13 03:33:56;;;;;;;2.78;1.10;;;;;;;10.45;62.63;100389.59;5092475;28;20099;-81
2021/10/13 03:36:22;;;;;;;5.28;1.70;;;;;;;10.50;62.50;100395.53;5092820;28;20085;-81
2021/10/13 03:39:03;;;;;;;3.05;1.15;;;;;;;10.49;63.43;100384.13;5093042;28;20059;-80
2021/10/13 03:41:29;;;;;;;5.50;1.60;;;;;;;10.57;62.25;100380.28;5111738;28;20571;-81
2021/10/13 03:43:56;;;;;;;3.92;1.42;;;;;;;10.59;62.24;100387.19;5112619;28;20062;-80
2021/10/13 03:47:02;;;;;;;4.55;1.42;;;;;;;10.56;63.09;100384.69;5112979;28;20054;-80
2021/10/13 03:49:29;;;;;;;4.13;1.55;;;;;;;10.63;61.94;100387.88;5111629;28;20100;-80
2021/10/13 03:52:14;;;;;;;5.30;1.60;;;;;;;10.59;62.90;100387.19;5092337;28;20048;-80
2021/10/13 03:54:41;;;;;;;2.80;1.40;;;;;;;10.64;61.95;100386.97;5092475;28;20071;-83
2021/10/13 03:57:07;;;;;;;4.55;1.63;;;;;;;10.63;61.67;100390.53;5092507;28;20048;-83
2021/10/13 03:59:37;;;;;;;4.90;1.50;;;;;;;10.61;62.25;100401.13;5094206;28;20059;-81
2021/10/13 04:02:04;;;;;;;4.65;1.55;;;;;;;10.60;61.95;100393.28;5112530;28;20055;-80
2021/10/13 04:04:34;;;;;;;5.97;1.45;;;;;;;10.58;62.42;100389.88;5112363;28;20047;-80
2021/10/13 04:07:08;;;;;;;4.05;1.52;;;;;;;10.54;62.64;100390.03;5115929;28;20058;-80
2021/10/13 04:09:34;;;;;;;4.63;1.40;;;;;;;10.58;62.00;100390.72;5115116;28;20409;-80
2021/10/13 04:12:01;;;;;;;2.22;1.30;;;;;;;10.58;61.94;100392.53;5096700;28;20402;-80
2021/10/13 04:14:34;;;;;;;5.18;1.70;;;;;;;10.55;62.56;100389.09;5096274;28;20409;-80
2021/10/13 04:17:01;;;;;;;3.72;1.92;;;;;;;10.58;61.88;100393.34;5096561;28;20398;-80
2021/10/13 04:19:32;;;;;;;6.25;1.70;;;;;;;10.55;62.46;100394.34;5096476;28;20052;-80
2021/10/13 04:21:58;;;;;;;3.25;1.48;;;;;;;10.58;61.91;100400.41;5096366;28;20055;-81
2021/10/13 04:24:39;;;;;;;4.05;1.15;;;;;;;10.53;63.02;100392.72;5096195;28;20489;-81
2021/10/13 04:27:06;;;;;;;5.97;2.15;;;;;;;10.58;62.25;100390.72;5096260;28;20052;-81
2021/10/13 04:29:42;;;;;;;3.80;1.52;;;;;;;10.57;62.99;100396.09;5096425;28;20056;-81
2021/10/13 04:32:09;;;;;;;6.25;1.60;;;;;;;10.62;62.49;100400.19;5096305;28;20504;-81
2021/10/13 04:34:36;;;;;;;6.28;1.42;;;;;;;10.66;62.65;100403.56;5097007;28;20048;-80
2021/10/13 04:37:05;;;;;;;5.97;1.77;;;;;;;10.67;63.13;100407.88;5096171;28;20490;-80
2021/10/13 04:39:32;;;;;;;2.92;1.13;;;;;;;10.71;62.63;100404.19;5095852;28;20052;-80
2021/10/13 04:42:13;;;;;;;4.20;1.58;;;;;;;10.71;63.37;100412.09;5096365;28;20401;-81
2021/10/13 04:44:40;;;;;;;5.28;1.33;;;;;;;10.77;62.53;100406.50;5095579;28;20048;-80
2021/10/13 04:47:07;;;;;;;4.18;1.60;;;;;;;10.80;62.61;100423.94;5096010;28;20074;-83
2021/10/13 04:49:37;;;;;;;3.13;1.33;;;;;;;10.81;62.72;100421.25;5096187;28;20063;-81
2021/10/13 04:52:04;;;;;;;4.88;1.80;;;;;;;10.84;62.60;100422.88;5095639;28;20052;-81
2021/10/13 04:54:31;;;;;;;6.43;1.65;;;;;;;10.86;62.51;100425.44;5095768;28;20056;-81
2021/10/13 04:56:59;;;;;;;5.00;1.95;;;;;;;10.85;62.49;100418.47;5095657;28;20067;-81
2021/10/13 04:59:26;;;;;;;5.05;1.90;;;;;;;10.86;62.49;100422.81;5096268;28;20052;-80
2021/10/13 05:01:52;;;;;;;3.47;1.50;;;;;;;10.86;62.43;100426.31;5113968;28;20055;-81
2021/10/13 05:04:42;;;;;;;5.75;1.77;;;;;;;10.80;63.12;100416.91;5111365;28;20044;-81
2021/10/13 05:07:09;;;;;;;4.88;1.75;;;;;;;10.85;62.31;100407.94;5095883;28;20059;-81
2021/10/13 05:09:53;;;;;;;3.03;1.48;;;;;;;10.78;63.10;100410.88;5096635;28;20052;-83
2021/10/13 05:12:31;;;;;;;5.55;1.48;;;;;;;10.79;63.14;100412.56;5094698;28;20509;-80
2021/10/13 05:14:58;;;;;;;6.63;1.63;;;;;;;10.82;62.44;100403.69;5095271;28;20048;-80
2021/10/13 05:17:25;;;;;;;6.55;1.70;;;;;;;10.81;62.60;100408.06;5095416;28;20501;-80
2021/10/13 05:20:03;;;;;;;5.20;1.65;;;;;;;10.78;63.30;100417.91;5100516;28;20044;-80
2021/10/13 05:22:30;;;;;;;4.53;1.55;;;;;;;10.80;62.52;100427.44;5116818;28;20048;-80
2021/10/13 05:24:57;;;;;;;3.50;1.50;;;;;;;10.80;62.62;100424.81;5115264;28;20047;-80
2021/10/13 05:27:23;;;;;;;5.43;1.40;;;;;;;10.81;62.61;100428.31;5115527;28;20051;-81
2021/10/13 05:30:01;;;;;;;6.63;1.80;;;;;;;10.78;63.33;100437.22;5110891;28;20040;-81
2021/10/13 05:32:27;;;;;;;4.13;1.42;;;;;;;10.81;62.66;100428.31;5095269;28;20523;-81
2021/10/13 05:34:54;;;;;;;5.18;1.60;;;;;;;10.81;62.64;100431.78;5095834;28;20051;-81
2021/10/13 05:37:29;;;;;;;5.05;1.60;;;;;;;10.78;63.43;100437.22;5095294;28;20052;-81
2021/10/13 05:39:56;;;;;;;11.25;2.20;;;;;;;10.81;62.61;100439.69;5099731;28;20051;-81
2021/10/13 05:42:24;;;;;;;3.53;1.65;;;;;;;10.80;63.30;100435.34;5115263;28;20044;-80
2021/10/13 05:44:51;;;;;;;8.60;1.75;;;;;;;10.81;62.90;100433.56;5115326;28;20425;-81
2021/10/13 05:47:19;;;;;;;5.55;1.73;;;;;;;10.81;63.10;100439.69;5115447;28;20459;-81
2021/10/13 05:49:47;;;;;;;5.82;1.80;;;;;;;10.81;63.01;100444.94;5112281;28;20060;-81
2021/10/13 05:52:14;;;;;;;5.20;1.58;;;;;;;10.84;62.93;100448.38;5094490;28;20048;-81
2021/10/13 05:54:41;;;;;;;7.63;1.55;;;;;;;10.84;62.95;100451.84;5094391;28;20051;-83
2021/10/13 05:57:30;;;;;;;7.07;1.90;;;;;;;10.80;63.78;100453.78;5096171;28;20052;-83
2021/10/13 05:59:58;;;;;;;4.20;1.23;;;;;;;10.85;62.78;100453.56;5098146;28;20436;-82
2021/10/13 06:02:36;;;;;;;5.88;1.77;;;;;;;10.81;63.65;100452.00;5114737;28;20092;-85
2021/10/13 06:05:04;;;;;;;9.02;1.52;;;;;;;10.84;62.70;100454.47;5114698;28;20134;-84
2021/10/13 06:07:56;;;;;;;4.60;1.55;;;;;;;10.77;63.36;100456.53;5116479;28;20520;-82
2021/10/13 06:10:23;;;;;;;3.88;1.50;;;;;;;10.79;62.59;100459.97;5094417;28;20051;-82
2021/10/13 06:13:12;;;;;;;6.20;1.48;;;;;;;10.71;63.36;100472.66;5094512;28;20063;-82
2021/10/13 06:15:39;;;;;;;2.75;1.20;;;;;;;10.72;62.63;100466.44;5094035;28;20054;-81
2021/10/13 06:18:19;;;;;;;6.05;1.35;;;;;;;10.67;63.72;100471.06;5095962;28;20051;-81
2021/10/13 06:20:46;;;;;;;3.60;1.70;;;;;;;10.70;62.86;100481.47;5100729;28;20052;-82
2021/10/13 06:23:42;;;;;;;3.90;1.73;;;;;;;10.66;63.93;100482.53;5094176;28;20058;-82
2021/10/13 06:29:50;;;;;;;5.28;1.60;;;;;;;10.73;62.96;100478.69;5110369;28;20043;-81
2021/10/13 06:33:07;;;;;;;5.18;1.75;;;;;;;10.71;63.95;100474.41;5114596;28;20393;-82
2021/10/13 06:35:34;;;;;;;3.65;1.30;;;;;;;10.77;62.90;100474.97;5114280;28;20489;-83
2021/10/13 06:38:17;;;;;;;4.45;1.58;;;;;;;10.73;63.87;100475.22;5113446;28;20052;-83
2021/10/13 06:40:44;;;;;;;3.15;1.55;;;;;;;10.77;63.15;100482.88;5093923;28;20125;-83
2021/10/13 06:43:11;;;;;;;3.92;1.60;;;;;;;10.80;63.21;100477.47;5093462;28;20048;-82
2021/10/13 06:46:03;;;;;;;4.85;1.60;;;;;;;10.79;63.90;100480.19;5093349;28;20040;-83
2021/10/13 06:48:30;;;;;;;5.10;1.55;;;;;;;10.86;63.16;100497.41;5096855;28;20428;-83
2021/10/13 06:50:58;;;;;;;2.75;1.33;;;;;;;10.88;63.25;100499.97;5114067;28;20047;-83
2021/10/13 06:53:28;;;;;;;5.90;1.88;;;;;;;10.90;63.80;100490.22;5113655;28;20054;-83
2021/10/13 06:55:56;;;;;;;5.68;1.80;;;;;;;10.93;63.29;100498.84;5113537;28;20050;-83
2021/10/13 06:58:49;;;;;;;4.40;1.73;;;;;;;10.92;64.26;100512.09;5111682;28;20043;-83
2021/10/13 07:01:16;;;;;;;6.13;1.90;;;;;;;11.00;63.20;100506.44;5093547;28;20489;-87
2021/10/13 07:03:42;;;;;;;4.45;1.40;;;;;;;11.02;63.39;100510.72;5093316;28;20044;-86
2021/10/13 07:06:40;;;;;;;4.78;1.50;;;;;;;11.01;64.14;100505.53;5093064;28;20052;-83
2021/10/13 07:09:07;;;;;;;6.80;1.55;;;;;;;11.10;63.49;100507.72;5100966;28;20050;-83
2021/10/13 07:11:53;;;;;;;5.40;1.45;;;;;;;11.10;64.43;100509.53;5113714;28;20428;-83
2021/10/13 07:14:20;;;;;;;5.10;2.08;;;;;;;11.18;63.69;100510.00;5113215;28;20050;-83
2021/10/13 07:16:46;;;;;;;2.78;1.25;;;;;;;11.21;63.70;100508.06;5113237;28;20048;-81
2021/10/13 07:19:35;;;;;;;5.35;1.40;;;;;;;11.23;64.56;100521.19;5104228;28;20044;-81
2021/10/13 07:22:02;;;;;;;3.08;1.25;;;;;;;11.33;63.91;100527.72;5093030;28;20048;-81
2021/10/13 07:24:29;;;;;;;6.88;1.60;;;;;;;11.40;63.97;100530.91;5092673;28;20052;-81
2021/10/13 07:27:15;;;;;;;4.20;1.77;;;;;;;11.44;64.64;100537.75;5093281;28;20051;-81
2021/10/13 07:29:57;;;;;;;5.13;1.88;;;;;;;11.53;64.33;100535.59;5094062;28;20161;-87
2021/10/13 07:32:30;;;;;;;4.67;1.73;;;;;;;11.62;63.86;100529.03;5113335;28;20086;-82
2021/10/13 07:38:42;;;;;;;7.75;1.60;;;;;;;11.80;63.42;100522.84;5114728;28;20406;-83
2021/10/13 07:41:15;;;;;;;4.45;1.58;;;;;;;11.84;63.37;100527.03;5098259;28;20501;-83
2021/10/13 07:44:12;;;;;;;5.88;1.40;;;;;;;11.86;63.70;100529.59;5092432;28;20052;-83
2021/10/13 07:46:38;;;;;;;6.55;1.65;;;;;;;11.93;63.04;100538.88;5092353;28;20126;-81
2021/10/13 07:49:31;;;;;;;7.20;1.60;;;;;;;11.92;63.37;100539.81;5092459;28;20059;-80
2021/10/13 07:51:58;;;;;;;2.90;1.27;;;;;;;11.99;62.92;100543.00;5109749;28;20054;-81
2021/10/13 07:54:25;;;;;;;11.05;2.15;;;;;;;11.99;62.94;100538.59;5104682;28;20051;-81
2021/10/13 07:56:58;;;;;;;5.28;2.00;;;;;;;12.00;63.62;100536.78;5112683;28;20056;-81
2021/10/13 07:59:24;;;;;;;;;;;;;;;12.05;63.27;100539.22;5113386;28;20406;-81
2021/10/13 08:01:51;;;;;;;4.57;1.50;;;;;;;12.13;62.74;100547.63;5112561;28;19927;-81
2021/10/13 08:04:23;;;;;;;9.38;2.00;;;;;;;12.11;63.39;100545.06;5102235;28;20131;-81
2021/10/13 08:06:50;;;;;;;8.27;2.38;;;;;;;12.16;63.04;100554.53;5092227;28;20040;-81
2021/10/13 08:09:21;;;;;;;4.30;1.55;;;;;;;12.17;63.41;100558.88;5092999;28;20058;-81
2021/10/13 08:11:48;;;;;;;8.13;1.60;;;;;;;12.22;63.26;100562.13;5092764;28;20068;-82
2021/10/13 08:14:43;;;;;;;4.50;1.63;;;;;;;12.22;63.61;100570.91;5100581;28;20051;-81
2021/10/13 08:17:10;;;;;;;6.35;1.70;;;;;;;12.30;63.09;100583.72;5112403;28;20043;-81
2021/10/13 08:20:05;;;;;;;10.55;2.22;;;;;;;12.30;63.64;100582.88;5112668;28;20056;-87
2021/10/13 08:22:32;;;;;;;3.78;1.40;;;;;;;12.38;62.91;100578.91;5112560;28;20477;-87
2021/10/13 08:28:22;;;;;;;3.45;1.25;;;;;;;12.45;62.93;100582.06;5093570;28;20399;-87
2021/10/13 08:30:49;;;;;;;4.75;1.48;;;;;;;12.47;63.05;100589.91;5091874;28;20048;-86
2021/10/13 08:36:57;;;;;;;5.20;1.70;;;;;;;12.51;62.94;100584.41;5062953;28;20043;-87
2021/10/13 08:39:29;;;;;;;6.82;1.50;;;;;;;12.50;63.65;100581.84;5054290;28;20530;-87
2021/10/13 08:41:56;;;;;;;7.57;1.67;;;;;;;12.54;63.16;100590.44;5054187;28;20048;-81
2021/10/13 08:44:25;;;;;;;5.00;1.23;;;;;;;12.55;63.39;100597.44;5053320;28;20499;-81
2021/10/13 08:46:52;;;;;;;7.22;1.42;;;;;;;12.57;63.40;100588.53;5054284;28;20048;-83
2021/10/13 08:49:19;;;;;;;5.90;2.05;;;;;;;12.60;63.44;100585.69;5054412;28;20075;-83
2021/10/13 08:51:55;;;;;;;7.40;1.90;;;;;;;12.61;64.27;100583.94;5072654;28;20059;-83
2021/10/13 08:54:21;;;;;;;4.07;1.50;;;;;;;12.69;63.63;100588.81;5095857;28;20048;-81
2021/10/13 08:56:48;;;;;;;2.72;1.52;;;;;;;12.73;63.69;100582.41;5095545;28;20063;-81
2021/10/13 09:02:46;;;;;;;4.60;1.80;;;;;;;12.83;63.62;100575.72;5097294;28;20078;-81
2021/10/13 09:05:20;;;;;;;4.38;1.50;;;;;;;12.88;64.13;100578.09;5095269;28;20289;-81
2021/10/13 09:07:53;;;;;;;4.28;1.60;;;;;;;12.95;64.36;100578.63;5107678;28;20055;-81
2021/10/13 09:10:40;;;;;;;5.30;1.92;;;;;;;13.00;64.23;100572.16;5116131;28;20055;-81
2021/10/13 09:13:16;;;;;;;6.00;1.90;;;;;;;13.09;64.33;100576.09;5116023;28;20100;-81
2021/10/13 09:15:57;;;;;;;5.72;1.73;;;;;;;13.18;64.86;100577.38;5115543;28;20044;-81
2021/10/13 09:18:25;;;;;;;2.78;1.90;;;;;;;13.32;64.50;100576.63;5115602;28;20051;-81
2021/10/13 09:20:54;;;;;;;10.38;2.30;;;;;;;13.43;64.14;100570.75;5101398;28;20059;-81
2021/10/13 09:26:46;;;;;;;5.13;2.17;;;;;;;13.62;64.30;100578.53;5096343;28;20047;-81
2021/10/13 09:29:14;;;;;;;5.75;1.90;;;;;;;13.75;63.80;100576.03;5094941;28;20051;-81
2021/10/13 09:31:41;;;;;;;4.07;1.90;;;;;;;13.83;63.64;100586.16;5095329;28;20498;-81
2021/10/13 09:37:48;;;;;;;3.97;1.30;;;;;;;13.96;63.71;100581.03;5116344;28;20396;-83
2021/10/13 09:40:33;;;;;;;5.40;1.90;;;;;;;14.04;63.93;100577.94;5115125;28;20058;-83
2021/10/13 09:46:41;;;;;;;5.03;1.35;;;;;;;14.26;63.33;100588.13;5116469;28;20424;-81
2021/10/13 09:49:07;;;;;;;4.38;1.45;;;;;;;14.33;63.37;100585.97;5115282;28;20050;-81
2021/10/13 09:51:36;;;;;;;5.43;1.85;;;;;;;14.37;63.14;100583.97;5113603;28;20496;-81
2021/10/13 09:54:24;;;;;;;4.32;1.40;;;;;;;14.39;63.16;100582.09;5114779;28;20050;-81
2021/10/13 09:56:51;;;;;;;4.22;1.55;;;;;;;14.50;62.65;100586.75;5114850;28;20047;-81
2021/10/13 09:59:18;;;;;;;4.47;1.45;;;;;;;14.55;62.79;100582.00;5115006;28;20063;-87
2021/10/13 10:02:05;;;;;;;4.00;1.63;;;;;;;14.56;62.53;100581.06;5114763;28;20050;-87
2021/10/13 10:04:34;;;;;;;4.38;1.15;;;;;;;14.67;62.90;100591.88;5108614;28;20044;-87
2021/10/13 10:07:01;;;;;;;4.20;1.27;;;;;;;14.77;63.20;100580.75;5094523;28;20542;-81
2021/10/13 10:12:59;;;;;;;3.58;1.13;;;;;;;15.06;62.96;100602.78;5095620;28;20143;-81
2021/10/13 10:18:37;;;;;;;4.70;1.33;;;;;;;15.36;62.20;100604.44;5100240;28;20055;-82
2021/10/13 10:21:24;;;;;;;5.50;1.42;;;;;;;15.48;61.43;100610.75;5114643;28;20070;-81
2021/10/13 10:23:57;;;;;;;4.72;1.27;;;;;;;15.64;61.20;100607.97;5114525;28;20048;-81
2021/10/13 10:26:28;;;;;;;2.92;1.63;;;;;;;15.77;61.11;100607.19;5115009;28;20052;-81
2021/10/13 10:29:01;;;;;;;7.43;1.52;;;;;;;15.90;60.82;100618.69;5114390;28;20051;-81
2021/10/13 10:32:10;;;;;;;6.28;1.38;;;;;;;15.98;60.59;100620.88;5114493;28;20059;-83
2021/10/13 10:34:37;;;;;;;3.72;1.30;;;;;;;16.13;60.52;100620.81;5094017;28;20079;-83
2021/10/13 10:37:06;;;;;;;4.65;1.02;;;;;;;16.22;60.00;100617.53;5093614;28;20048;-83
2021/10/13 10:40:30;;;;;;;3.33;1.10;;;;;;;16.29;59.08;100617.97;5093951;28;20052;-83
2021/10/13 10:43:07;;;;;;;5.50;1.00;;;;;;;16.41;58.73;100621.63;5013214;28;20080;-83
2021/10/13 10:45:40;;;;;;;5.35;1.08;;;;;;;16.47;58.69;100613.22;4996535;28;20054;-81
2021/10/13 10:48:41;;;;;;;3.67;1.10;;;;;;;16.49;58.22;100624.59;5012131;28;20967;-83
2021/10/13 10:51:08;;;;;;;4.55;1.67;;;;;;;16.58;58.53;100612.50;5016017;28;20064;-84
2021/10/13 10:53:39;;;;;;;5.40;1.30;;;;;;;16.60;58.03;100620.38;5015920;28;20060;-83
2021/10/13 10:56:30;;;;;;;4.28;1.20;;;;;;;16.62;58.72;100619.31;5015978;28;20573;-83
2021/10/13 10:59:07;;;;;;;5.88;1.23;;;;;;;16.73;58.79;100625.66;5016014;28;20104;-83
2021/10/13 11:01:35;;;;;;;1.98;0.98;;;;;;;16.87;58.87;100617.59;5005328;28;20076;-83
2021/10/13 11:04:10;;;;;;;4.40;1.30;;;;;;;16.96;58.60;100610.78;4996148;28;20136;-83
2021/10/13 11:06:41;;;;;;;5.72;1.15;;;;;;;17.12;57.95;100612.41;5029108;28;20131;-83
2021/10/13 11:09:12;;;;;;;5.13;1.40;;;;;;;17.28;58.33;100615.66;5093091;28;20052;-83
2021/10/13 11:11:42;;;;;;;2.67;1.23;;;;;;;17.51;58.47;100625.59;5093068;28;20138;-83
2021/10/13 11:14:24;;;;;;;3.30;1.38;;;;;;;17.70;57.86;100620.63;5092787;28;20052;-83
2021/10/13 11:16:57;;;;;;;5.05;1.35;;;;;;;18.01;57.79;100617.50;5092961;28;20047;-82
2021/10/13 11:19:38;;;;;;;3.83;1.40;;;;;;;18.33;58.08;100613.41;5095396;28;20090;-82
2021/10/13 11:22:09;;;;;;;5.95;1.42;;;;;;;18.70;58.09;100615.91;5113797;28;20047;-82
2021/10/13 11:24:48;;;;;;;3.30;1.13;;;;;;;19.04;56.35;100615.06;5113478;28;20466;-83
2021/10/13 11:27:23;;;;;;;4.55;1.58;;;;;;;19.47;56.57;100613.47;5113302;28;20039;-82
2021/10/13 11:29:50;;;;;;;5.43;1.33;;;;;;;19.92;56.42;100607.13;5113088;28;20062;-82
2021/10/13 11:32:40;;;;;;;5.57;1.50;;;;;;;20.24;53.28;100615.28;5113089;28;20052;-88
2021/10/13 11:35:07;;;;;;;3.72;1.33;;;;;;;20.44;52.06;100609.09;5097176;28;20048;-88
2021/10/13 11:37:48;;;;;;;9.38;1.35;;;;;;;20.34;49.72;100608.19;5093740;28;20055;-83
2021/10/13 11:40:16;;;;;;;2.90;1.05;;;;;;;20.23;49.96;100616.25;5092934;28;20478;-83
2021/10/13 11:42:43;;;;;;;2.97;1.10;;;;;;;19.97;49.65;100609.44;5092540;28;20063;-83
2021/10/13 11:45:25;;;;;;;4.10;1.38;;;;;;;19.60;49.80;100612.47;5092770;28;20402;-82
2021/10/13 11:47:52;;;;;;;5.97;1.10;;;;;;;19.51;51.72;100616.75;5096684;28;20547;-82
2021/10/13 11:50:21;;;;;;;2.88;1.02;;;;;;;19.46;51.57;100602.91;5113133;28;20077;-82
2021/10/13 11:53:12;;;;;;;4.30;1.00;;;;;;;19.44;51.34;100607.53;5112983;28;20047;-88
2021/10/13 11:55:40;;;;;;;6.88;1.20;;;;;;;19.49;51.24;100608.88;5112938;28;20040;-88
2021/10/13 11:58:07;;;;;;;3.92;1.45;;;;;;;19.40;50.88;100615.78;5112695;28;20090;-88
2021/10/13 12:00:47;;;;;;;3.88;1.27;;;;;;;19.20;50.70;100620.06;5112694;28;20062;-87
2021/10/13 12:03:14;;;;;;;6.68;1.42;;;;;;;19.06;50.58;100615.81;5097486;28;20047;-88
2021/10/13 12:06:16;;;;;;;3.53;1.40;;;;;;;18.80;50.25;100620.53;5092412;28;20059;-88
2021/10/13 12:08:43;;;;;;;3.28;1.23;;;;;;;18.52;50.87;100618.19;5090279;28;20055;-82
2021/10/13 12:11:19;;;;;;;4.63;1.10;;;;;;;18.25;51.27;100626.47;5092985;28;20071;-82
2021/10/13 12:13:49;;;;;;;4.57;1.33;;;;;;;17.94;51.62;100625.09;5092688;28;20058;-83
2021/10/13 12:16:43;;;;;;;4.68;1.40;;;;;;;17.63;52.41;100619.38;5102399;28;20040;-83
2021/10/13 12:19:14;;;;;;;3.05;0.98;;;;;;;17.45;52.87;100621.56;5112485;28;20055;-83
2021/10/13 12:22:01;;;;;;;3.90;0.90;;;;;;;17.26;53.42;100628.22;5112503;28;20051;-82
2021/10/13 12:24:38;;;;;;;2.10;0.90;;;;;;;17.15;53.65;100623.66;5112612;28;20056;-82
2021/10/13 12:27:08;;;;;;;1.98;0.90;;;;;;;17.15;54.60;100612.16;5113996;28;20054;-82
2021/10/13 12:30:00;;;;;;;7.20;1.40;;;;;;;17.11;55.08;100606.22;5116600;28;20138;-82
2021/10/13 12:32:27;;;;;;;3.35;1.15;;;;;;;17.19;55.25;100605.66;5096385;28;20145;-83
2021/10/13 12:34:54;;;;;;;3.55;1.05;;;;;;;17.26;55.51;100606.94;5096325;28;20052;-83
2021/10/13 12:37:27;;;;;;;3.58;1.10;;;;;;;17.31;55.13;100609.28;5096347;28;20070;-82
2021/10/13 12:43:36;;;;;;;6.75;1.73;;;;;;;17.52;55.18;100606.84;5097103;28;19927;-82